createdAt,value
2018-03-25T00:00:25.828Z,2.06
2018-03-25T00:01:25.830Z,2.10
2018-03-25T00:02:25.817Z,2.14
2018-03-25T00:03:25.998Z,2.10
2018-03-25T00:04:25.792Z,2.14
2018-03-25T00:05:25.780Z,2.14
2018-03-25T00:06:26.012Z,2.14
2018-03-25T00:07:25.768Z,2.20
2018-03-25T00:08:25.785Z,2.17
2018-03-25T00:09:25.973Z,2.15
2018-03-25T00:10:25.949Z,2.18
2018-03-25T00:11:25.761Z,2.14
2018-03-25T00:12:25.730Z,2.20
2018-03-25T00:13:25.781Z,2.13
2018-03-25T00:14:25.743Z,2.20
2018-03-25T00:15:25.733Z,2.15
2018-03-25T00:16:25.699Z,2.26
2018-03-25T00:17:25.706Z,2.36
2018-03-25T00:18:25.920Z,2.33
2018-03-25T00:19:25.714Z,2.33
2018-03-25T00:20:25.693Z,2.42
2018-03-25T00:21:25.867Z,2.39
2018-03-25T00:22:25.666Z,2.28
2018-03-25T00:23:25.661Z,2.25
2018-03-25T00:24:25.717Z,2.24
2018-03-25T00:25:25.636Z,2.25
2018-03-25T00:26:25.638Z,2.17
2018-03-25T00:27:25.626Z,2.13
2018-03-25T00:28:25.616Z,2.11
2018-03-25T00:29:25.666Z,2.10
2018-03-25T00:30:25.622Z,2.02
2018-03-25T00:31:25.611Z,1.95
2018-03-25T00:32:25.597Z,1.99
2018-03-25T00:33:25.585Z,1.95
2018-03-25T00:34:25.603Z,2.00
2018-03-25T00:35:25.583Z,1.97
2018-03-25T00:36:25.754Z,1.92
2018-03-25T00:37:25.546Z,1.87
2018-03-25T00:38:25.730Z,1.88
2018-03-25T00:39:25.742Z,1.84
2018-03-25T00:40:25.740Z,1.78
2018-03-25T00:41:25.704Z,1.77
2018-03-25T00:42:25.748Z,1.74
2018-03-25T00:43:25.486Z,1.66
2018-03-25T00:44:25.494Z,1.70
2018-03-25T00:45:25.497Z,1.59
2018-03-25T00:46:25.484Z,1.59
2018-03-25T00:47:25.662Z,1.63
2018-03-25T00:48:25.656Z,1.63
2018-03-25T00:49:25.499Z,1.60
2018-03-25T00:50:25.446Z,1.66
2018-03-25T00:51:25.426Z,1.67
2018-03-25T00:52:25.418Z,1.62
2018-03-25T00:53:25.413Z,1.63
2018-03-25T00:54:25.403Z,1.62
2018-03-25T00:55:25.395Z,1.63
2018-03-25T00:56:25.417Z,1.63
2018-03-25T00:57:25.391Z,1.62
2018-03-25T00:58:25.578Z,1.56
2018-03-25T00:59:25.570Z,1.55
2018-03-25T01:00:25.373Z,1.62
2018-03-25T01:01:25.567Z,1.55
2018-03-25T01:02:25.550Z,1.52
2018-03-25T01:03:25.352Z,1.48
2018-03-25T01:04:25.562Z,1.44
2018-03-25T01:05:25.323Z,1.48
2018-03-25T01:06:25.315Z,1.48
2018-03-25T01:07:25.330Z,1.31
2018-03-25T01:08:25.297Z,1.32
2018-03-25T01:09:25.330Z,1.28
2018-03-25T01:10:25.281Z,1.31
2018-03-25T01:11:25.475Z,1.22
2018-03-25T01:12:25.473Z,1.23
2018-03-25T01:13:25.462Z,1.17
2018-03-25T01:14:25.265Z,1.19
2018-03-25T01:15:25.457Z,1.20
2018-03-25T01:16:25.250Z,1.16
2018-03-25T01:17:25.240Z,1.12
2018-03-25T01:18:25.442Z,1.16
2018-03-25T01:19:25.220Z,1.16
2018-03-25T01:20:25.408Z,1.13
2018-03-25T01:21:25.203Z,1.17
2018-03-25T01:22:25.199Z,1.12
2018-03-25T01:23:25.179Z,1.13
2018-03-25T01:24:25.186Z,0.99
2018-03-25T01:25:25.176Z,1.05
2018-03-25T01:26:25.166Z,1.01
2018-03-25T01:27:25.170Z,1.01
2018-03-25T01:28:25.140Z,0.98
2018-03-25T01:29:25.347Z,0.96
2018-03-25T01:30:25.140Z,0.99
2018-03-25T01:31:25.331Z,1.04
2018-03-25T01:32:25.111Z,1.01
2018-03-25T01:33:25.118Z,1.12
2018-03-25T01:34:25.302Z,1.08
2018-03-25T01:35:25.100Z,1.13
2018-03-25T01:36:25.088Z,1.13
2018-03-25T01:37:25.098Z,1.06
2018-03-25T01:38:25.062Z,1.02
2018-03-25T01:39:25.282Z,0.96
2018-03-25T01:40:25.274Z,0.94
2018-03-25T01:41:25.041Z,0.81
2018-03-25T01:42:25.231Z,0.84
2018-03-25T01:43:25.019Z,0.78
2018-03-25T01:44:25.219Z,0.78
2018-03-25T01:45:25.016Z,0.84
2018-03-25T01:46:25.010Z,0.84
2018-03-25T01:47:25.014Z,0.96
2018-03-25T01:48:25.195Z,0.96
2018-03-25T01:49:24.987Z,1.10
2018-03-25T01:50:25.172Z,1.16
2018-03-25T01:51:24.971Z,1.16
2018-03-25T01:52:24.962Z,1.14
2018-03-25T01:53:25.142Z,1.23
2018-03-25T01:54:24.932Z,1.23
2018-03-25T01:55:24.938Z,1.30
2018-03-25T01:56:24.932Z,1.28
2018-03-25T01:57:24.909Z,1.08
2018-03-25T01:58:24.913Z,1.10
2018-03-25T01:59:24.908Z,1.10
2018-03-25T02:00:24.898Z,0.96
2018-03-25T02:01:24.880Z,1.02
2018-03-25T02:02:25.089Z,0.98
2018-03-25T02:03:24.867Z,0.95
2018-03-25T02:04:24.862Z,0.80
2018-03-25T02:05:24.846Z,0.66
2018-03-25T02:06:24.846Z,0.76
2018-03-25T02:07:24.842Z,0.74
2018-03-25T02:08:24.817Z,0.63
2018-03-25T02:09:24.843Z,0.70
2018-03-25T02:10:24.817Z,0.69
2018-03-25T02:11:24.996Z,0.68
2018-03-25T02:12:25.004Z,0.87
2018-03-25T02:13:24.780Z,0.74
2018-03-25T02:14:24.770Z,0.76
2018-03-25T02:15:24.786Z,0.70
2018-03-25T02:16:24.758Z,0.73
2018-03-25T02:17:24.960Z,0.70
2018-03-25T02:18:24.736Z,0.80
2018-03-25T02:19:24.731Z,0.74
2018-03-25T02:20:24.922Z,0.78
2018-03-25T02:21:24.709Z,0.73
2018-03-25T02:22:24.730Z,0.78
2018-03-25T02:23:24.711Z,0.80
2018-03-25T02:24:24.703Z,0.84
2018-03-25T02:25:24.690Z,0.81
2018-03-25T02:26:24.670Z,0.81
2018-03-25T02:27:24.659Z,0.96
2018-03-25T02:28:24.664Z,0.99
2018-03-25T02:29:24.672Z,0.94
2018-03-25T02:30:24.860Z,0.96
2018-03-25T02:31:24.644Z,0.92
2018-03-25T02:32:24.649Z,0.84
2018-03-25T02:33:24.614Z,0.78
2018-03-25T02:34:24.628Z,0.78
2018-03-25T02:35:24.599Z,0.66
2018-03-25T02:36:24.600Z,0.68
2018-03-25T02:37:24.590Z,0.70
2018-03-25T02:38:24.570Z,0.58
2018-03-25T02:39:24.637Z,0.56
2018-03-25T02:40:24.554Z,0.56
2018-03-25T02:41:24.544Z,0.52
2018-03-25T02:42:24.544Z,0.52
2018-03-25T02:43:24.529Z,0.58
2018-03-25T02:44:24.526Z,0.60
2018-03-25T02:45:24.566Z,0.77
2018-03-25T02:46:24.709Z,0.73
2018-03-25T02:47:24.494Z,0.63
2018-03-25T02:48:24.691Z,0.63
2018-03-25T02:49:24.692Z,0.62
2018-03-25T02:50:24.676Z,0.62
2018-03-25T02:51:24.681Z,0.58
2018-03-25T02:52:24.454Z,0.47
2018-03-25T02:53:24.649Z,0.49
2018-03-25T02:54:24.640Z,0.52
2018-03-25T02:55:24.438Z,0.55
2018-03-25T02:56:24.625Z,0.47
2018-03-25T02:57:24.412Z,0.47
2018-03-25T02:58:24.403Z,0.46
2018-03-25T02:59:24.408Z,0.49
2018-03-25T03:00:24.592Z,0.55
2018-03-25T03:01:24.379Z,0.56
2018-03-25T03:02:24.378Z,0.50
2018-03-25T03:03:24.358Z,0.52
2018-03-25T03:04:24.362Z,0.62
2018-03-25T03:05:24.342Z,0.58
2018-03-25T03:06:24.544Z,0.55
2018-03-25T03:07:24.341Z,0.47
2018-03-25T03:08:24.547Z,0.37
2018-03-25T03:09:24.311Z,0.36
2018-03-25T03:10:24.302Z,0.31
2018-03-25T03:11:24.307Z,0.25
2018-03-25T03:12:24.289Z,0.36
2018-03-25T03:13:24.290Z,0.34
2018-03-25T03:14:24.268Z,0.26
2018-03-25T03:15:24.258Z,0.31
2018-03-25T03:16:24.260Z,0.39
2018-03-25T03:17:24.246Z,0.41
2018-03-25T03:18:24.236Z,0.37
2018-03-25T03:19:24.239Z,0.46
2018-03-25T03:20:24.216Z,0.47
2018-03-25T03:21:24.207Z,0.50
2018-03-25T03:22:24.201Z,0.39
2018-03-25T03:23:24.397Z,0.36
2018-03-25T03:24:24.387Z,0.36
2018-03-25T03:25:24.175Z,0.25
2018-03-25T03:26:24.166Z,0.28
2018-03-25T03:27:24.168Z,0.29
2018-03-25T03:28:24.148Z,0.26
2018-03-25T03:29:24.140Z,0.31
2018-03-25T03:30:24.134Z,0.36
2018-03-25T03:31:24.331Z,0.39
2018-03-25T03:32:24.128Z,0.34
2018-03-25T03:33:24.108Z,0.37
2018-03-25T03:34:24.101Z,0.37
2018-03-25T03:35:24.090Z,0.32
2018-03-25T03:36:24.082Z,0.43
2018-03-25T03:37:24.072Z,0.41
2018-03-25T03:38:24.065Z,0.41
2018-03-25T03:39:24.069Z,0.44
2018-03-25T03:40:24.053Z,0.41
2018-03-25T03:41:24.053Z,0.36
2018-03-25T03:42:24.245Z,0.40
2018-03-25T03:43:24.237Z,0.37
2018-03-25T03:44:24.013Z,0.25
2018-03-25T03:45:24.031Z,0.29
2018-03-25T03:46:23.997Z,0.34
2018-03-25T03:47:23.989Z,0.31
2018-03-25T03:48:23.994Z,0.28
2018-03-25T03:49:23.988Z,0.25
2018-03-25T03:50:23.976Z,0.31
2018-03-25T03:51:23.951Z,0.18
2018-03-25T03:52:23.943Z,0.21
2018-03-25T03:53:24.174Z,0.22
2018-03-25T03:54:23.928Z,0.19
2018-03-25T03:55:23.919Z,0.28
2018-03-25T03:56:24.119Z,0.15
2018-03-25T03:57:24.107Z,0.29
2018-03-25T03:58:23.893Z,0.25
2018-03-25T03:59:23.887Z,0.36
2018-03-25T04:00:23.878Z,0.22
2018-03-25T04:01:24.086Z,0.36
2018-03-25T04:02:23.858Z,0.29
2018-03-25T04:03:23.887Z,0.26
2018-03-25T04:04:23.845Z,0.23
2018-03-25T04:05:23.860Z,0.21
2018-03-25T04:06:23.825Z,0.21
2018-03-25T04:07:23.829Z,0.22
2018-03-25T04:08:23.807Z,0.28
2018-03-25T04:09:23.802Z,0.18
2018-03-25T04:10:23.801Z,0.21
2018-03-25T04:11:23.784Z,0.26
2018-03-25T04:12:23.789Z,0.22
2018-03-25T04:13:23.765Z,0.12
2018-03-25T04:14:23.771Z,0.05
2018-03-25T04:15:23.762Z,0.11
2018-03-25T04:16:23.964Z,0.04
2018-03-25T04:17:23.748Z,0.07
2018-03-25T04:18:23.929Z,0.12
2018-03-25T04:19:23.936Z,0.12
2018-03-25T04:20:23.718Z,0.10
2018-03-25T04:21:23.694Z,0.10
2018-03-25T04:22:23.716Z,0.08
2018-03-25T04:23:23.681Z,-0.06
2018-03-25T04:24:23.667Z,-0.17
2018-03-25T04:25:23.676Z,-0.20
2018-03-25T04:26:23.668Z,-0.21
2018-03-25T04:27:23.659Z,-0.13
2018-03-25T04:28:23.653Z,-0.13
2018-03-25T04:29:23.627Z,-0.03
2018-03-25T04:30:23.618Z,-0.02
2018-03-25T04:31:23.620Z,0.03
2018-03-25T04:32:23.609Z,0.12
2018-03-25T04:33:23.591Z,0.07
2018-03-25T04:34:23.583Z,0.22
2018-03-25T04:35:23.588Z,0.18
2018-03-25T04:36:23.563Z,0.28
2018-03-25T04:37:23.558Z,0.34
2018-03-25T04:38:23.555Z,0.32
2018-03-25T04:39:23.543Z,0.40
2018-03-25T04:40:23.529Z,0.37
2018-03-25T04:41:23.522Z,0.47
2018-03-25T04:42:23.525Z,0.47
2018-03-25T04:43:23.511Z,0.49
2018-03-25T04:44:23.496Z,0.46
2018-03-25T04:45:23.693Z,0.52
2018-03-25T04:46:23.481Z,0.44
2018-03-25T04:47:23.516Z,0.40
2018-03-25T04:48:23.475Z,0.26
2018-03-25T04:49:23.456Z,0.22
2018-03-25T04:50:23.652Z,0.23
2018-03-25T04:51:23.441Z,0.08
2018-03-25T04:52:23.641Z,0.01
2018-03-25T04:53:23.424Z,-0.03
2018-03-25T04:54:23.442Z,-0.06
2018-03-25T04:55:23.402Z,-0.03
2018-03-25T04:56:23.396Z,-0.02
2018-03-25T04:57:23.590Z,-0.11
2018-03-25T04:58:23.582Z,0.01
2018-03-25T04:59:23.382Z,-0.02
2018-03-25T05:00:23.362Z,0.01
2018-03-25T05:01:23.353Z,0.00
2018-03-25T05:02:23.356Z,-0.03
2018-03-25T05:03:23.539Z,-0.11
2018-03-25T05:04:23.337Z,-0.07
2018-03-25T05:05:23.353Z,-0.08
2018-03-25T05:06:23.321Z,-0.08
2018-03-25T05:07:23.305Z,-0.17
2018-03-25T05:08:23.302Z,-0.15
2018-03-25T05:09:23.487Z,-0.17
2018-03-25T05:10:23.495Z,-0.23
2018-03-25T05:11:23.266Z,-0.15
2018-03-25T05:12:23.259Z,-0.20
2018-03-25T05:13:23.247Z,-0.20
2018-03-25T05:14:23.239Z,-0.13
2018-03-25T05:15:23.252Z,-0.20
2018-03-25T05:16:23.224Z,-0.18
2018-03-25T05:17:23.222Z,-0.15
2018-03-25T05:18:23.208Z,-0.11
2018-03-25T05:19:23.401Z,-0.28
2018-03-25T05:20:23.208Z,-0.29
2018-03-25T05:21:23.194Z,-0.28
2018-03-25T05:22:23.169Z,-0.39
2018-03-25T05:23:23.159Z,-0.43
2018-03-25T05:24:23.152Z,-0.44
2018-03-25T05:25:23.346Z,-0.54
2018-03-25T05:26:23.135Z,-0.47
2018-03-25T05:27:23.135Z,-0.44
2018-03-25T05:28:23.132Z,-0.39
2018-03-25T05:29:23.109Z,-0.34
2018-03-25T05:30:23.305Z,-0.41
2018-03-25T05:31:23.305Z,-0.39
2018-03-25T05:32:23.094Z,-0.31
2018-03-25T05:33:23.090Z,-0.29
2018-03-25T05:34:23.299Z,-0.29
2018-03-25T05:35:23.077Z,-0.41
2018-03-25T05:36:23.074Z,-0.26
2018-03-25T05:37:23.038Z,-0.20
2018-03-25T05:38:23.039Z,-0.18
2018-03-25T05:39:23.019Z,-0.23
2018-03-25T05:40:23.218Z,-0.17
2018-03-25T05:41:23.020Z,-0.15
2018-03-25T05:42:23.006Z,-0.20
2018-03-25T05:43:22.986Z,-0.17
2018-03-25T05:44:22.973Z,-0.15
2018-03-25T05:45:22.970Z,-0.15
2018-03-25T05:46:22.969Z,-0.20
2018-03-25T05:47:22.971Z,-0.14
2018-03-25T05:48:22.947Z,-0.20
2018-03-25T05:49:22.962Z,-0.18
2018-03-25T05:50:22.921Z,-0.15
2018-03-25T05:51:22.926Z,-0.08
2018-03-25T05:52:22.912Z,-0.11
2018-03-25T05:53:22.908Z,0.03
2018-03-25T05:54:22.903Z,-0.07
2018-03-25T05:55:22.877Z,0.00
2018-03-25T05:56:22.883Z,-0.06
2018-03-25T05:57:23.074Z,-0.13
2018-03-25T05:58:23.061Z,-0.02
2018-03-25T05:59:22.843Z,-0.02
2018-03-25T06:00:22.854Z,-0.11
2018-03-25T06:01:22.832Z,-0.11
2018-03-25T06:02:22.819Z,-0.14
2018-03-25T06:03:22.819Z,-0.03
2018-03-25T06:04:22.814Z,0.05
2018-03-25T06:05:23.004Z,0.12
2018-03-25T06:06:22.783Z,0.10
2018-03-25T06:07:22.790Z,0.07
2018-03-25T06:08:22.767Z,0.08
2018-03-25T06:09:22.757Z,0.22
2018-03-25T06:10:22.954Z,0.15
2018-03-25T06:11:22.740Z,0.04
2018-03-25T06:12:22.730Z,0.21
2018-03-25T06:13:22.741Z,0.23
2018-03-25T06:14:22.929Z,0.19
2018-03-25T06:15:22.907Z,0.22
2018-03-25T06:16:22.707Z,0.16
2018-03-25T06:17:22.689Z,0.28
2018-03-25T06:18:22.678Z,0.23
2018-03-25T06:19:22.668Z,0.26
2018-03-25T06:20:22.660Z,0.28
2018-03-25T06:21:22.649Z,0.29
2018-03-25T06:22:22.643Z,0.32
2018-03-25T06:23:22.697Z,0.28
2018-03-25T06:24:22.627Z,0.36
2018-03-25T06:25:22.618Z,0.39
2018-03-25T06:26:22.610Z,0.46
2018-03-25T06:27:22.614Z,0.47
2018-03-25T06:28:22.591Z,0.47
2018-03-25T06:29:22.606Z,0.52
2018-03-25T06:30:22.785Z,0.58
2018-03-25T06:31:22.778Z,0.62
2018-03-25T06:32:22.560Z,0.66
2018-03-25T06:33:22.546Z,0.58
2018-03-25T06:34:22.553Z,0.69
2018-03-25T06:35:22.530Z,0.68
2018-03-25T06:36:22.524Z,0.70
2018-03-25T06:37:22.515Z,0.73
2018-03-25T06:38:22.504Z,0.78
2018-03-25T06:39:22.517Z,0.78
2018-03-25T06:40:22.495Z,0.86
2018-03-25T06:41:22.695Z,0.86
2018-03-25T06:42:22.468Z,0.95
2018-03-25T06:43:22.678Z,0.99
2018-03-25T06:44:22.465Z,1.05
2018-03-25T06:45:22.451Z,1.13
2018-03-25T06:46:22.640Z,1.16
2018-03-25T06:47:22.427Z,1.28
2018-03-25T06:48:22.416Z,1.26
2018-03-25T06:49:22.410Z,1.17
2018-03-25T06:50:22.405Z,1.31
2018-03-25T06:51:22.610Z,1.37
2018-03-25T06:52:22.398Z,1.41
2018-03-25T06:53:22.592Z,1.50
2018-03-25T06:54:22.367Z,1.59
2018-03-25T06:55:22.361Z,1.74
2018-03-25T06:56:22.365Z,1.74
2018-03-25T06:57:22.556Z,1.88
2018-03-25T06:58:22.337Z,1.87
2018-03-25T06:59:22.327Z,2.02
2018-03-25T07:00:22.316Z,2.22
2018-03-25T07:01:22.322Z,2.20
2018-03-25T07:02:22.303Z,2.28
2018-03-25T07:03:22.509Z,2.29
2018-03-25T07:04:22.295Z,2.31
2018-03-25T07:05:22.275Z,2.46
2018-03-25T07:06:22.274Z,2.56
2018-03-25T07:07:22.264Z,2.60
2018-03-25T07:08:22.250Z,2.75
2018-03-25T07:09:22.250Z,2.86
2018-03-25T07:10:22.253Z,3.00
2018-03-25T07:11:22.225Z,3.01
2018-03-25T07:12:22.220Z,3.26
2018-03-25T07:13:22.210Z,3.44
2018-03-25T07:14:22.235Z,3.68
2018-03-25T07:15:22.196Z,3.87
2018-03-25T07:16:22.215Z,4.37
2018-03-25T07:17:22.404Z,4.55
2018-03-25T07:18:22.188Z,4.77
2018-03-25T07:19:22.377Z,4.96
2018-03-25T07:20:22.154Z,5.35
2018-03-25T07:21:22.160Z,5.59
2018-03-25T07:22:22.156Z,5.65
2018-03-25T07:23:22.353Z,5.90
2018-03-25T07:24:22.152Z,6.02
2018-03-25T07:25:22.143Z,5.91
2018-03-25T07:26:22.129Z,6.17
2018-03-25T07:27:22.119Z,6.42
2018-03-25T07:28:22.098Z,6.57
2018-03-25T07:29:22.114Z,6.75
2018-03-25T07:30:22.087Z,6.79
2018-03-25T07:31:22.082Z,7.06
2018-03-25T07:32:22.086Z,7.21
2018-03-25T07:33:22.080Z,7.32
2018-03-25T07:34:22.063Z,7.58
2018-03-25T07:35:22.056Z,7.80
2018-03-25T07:36:22.052Z,7.98
2018-03-25T07:37:22.045Z,8.16
2018-03-25T07:38:22.039Z,8.44
2018-03-25T07:39:22.044Z,8.60
2018-03-25T07:40:22.030Z,8.78
2018-03-25T07:41:22.025Z,8.87
2018-03-25T07:42:22.032Z,8.87
2018-03-25T07:43:22.014Z,8.99
2018-03-25T07:44:22.010Z,8.99
2018-03-25T07:45:22.028Z,8.94
2018-03-25T07:46:22.004Z,8.87
2018-03-25T07:47:21.993Z,8.78
2018-03-25T07:48:21.990Z,8.49
2018-03-25T07:49:21.989Z,8.34
2018-03-25T07:50:21.996Z,8.28
2018-03-25T07:51:21.980Z,8.28
2018-03-25T07:52:21.983Z,8.42
2018-03-25T07:53:21.971Z,8.52
2018-03-25T07:54:21.988Z,8.60
2018-03-25T07:55:21.976Z,8.67
2018-03-25T07:56:21.982Z,8.78
2018-03-25T07:57:21.958Z,8.71
2018-03-25T07:58:22.171Z,8.84
2018-03-25T07:59:21.978Z,8.89
2018-03-25T08:00:21.962Z,8.94
2018-03-25T08:01:21.946Z,8.95
2018-03-25T08:02:21.942Z,9.19
2018-03-25T08:03:21.948Z,9.34
2018-03-25T08:04:21.935Z,9.50
2018-03-25T08:05:21.932Z,9.55
2018-03-25T08:06:21.933Z,9.48
2018-03-25T08:07:22.134Z,9.64
2018-03-25T08:08:21.922Z,9.82
2018-03-25T08:09:21.919Z,9.83
2018-03-25T08:10:21.915Z,10.09
2018-03-25T08:11:21.914Z,10.25
2018-03-25T08:12:21.910Z,10.30
2018-03-25T08:13:21.908Z,10.25
2018-03-25T08:14:21.945Z,10.53
2018-03-25T08:15:21.907Z,10.68
2018-03-25T08:16:21.902Z,10.92
2018-03-25T08:17:21.899Z,11.12
2018-03-25T08:18:22.099Z,11.63
2018-03-25T08:19:21.897Z,11.86
2018-03-25T08:20:21.893Z,11.95
2018-03-25T08:21:21.911Z,12.06
2018-03-25T08:22:21.897Z,12.31
2018-03-25T08:23:21.896Z,12.10
2018-03-25T08:24:22.088Z,12.02
2018-03-25T08:25:21.879Z,11.88
2018-03-25T08:26:21.882Z,11.65
2018-03-25T08:27:21.886Z,11.70
2018-03-25T08:28:21.875Z,11.80
2018-03-25T08:29:21.889Z,11.95
2018-03-25T08:30:22.079Z,12.24
2018-03-25T08:31:21.874Z,12.28
2018-03-25T08:32:22.088Z,12.37
2018-03-25T08:33:21.882Z,12.42
2018-03-25T08:34:21.870Z,12.64
2018-03-25T08:35:21.881Z,12.82
2018-03-25T08:36:21.870Z,12.85
2018-03-25T08:37:21.867Z,13.09
2018-03-25T08:38:21.870Z,13.22
2018-03-25T08:39:22.069Z,13.77
2018-03-25T08:40:21.886Z,14.20
2018-03-25T08:41:21.881Z,14.00
2018-03-25T08:42:21.877Z,13.95
2018-03-25T08:43:21.872Z,14.04
2018-03-25T08:44:22.066Z,14.14
2018-03-25T08:45:22.075Z,14.37
2018-03-25T08:46:22.061Z,14.36
2018-03-25T08:47:21.857Z,14.53
2018-03-25T08:48:21.869Z,14.79
2018-03-25T08:49:21.876Z,15.00
2018-03-25T08:50:21.851Z,15.15
2018-03-25T08:51:21.859Z,15.25
2018-03-25T08:52:21.847Z,15.25
2018-03-25T08:53:21.857Z,15.72
2018-03-25T08:54:21.843Z,15.61
2018-03-25T08:55:21.843Z,15.88
2018-03-25T08:56:21.851Z,16.16
2018-03-25T08:57:21.833Z,16.41
2018-03-25T08:58:21.845Z,16.21
2018-03-25T08:59:21.830Z,15.65
2018-03-25T09:00:21.826Z,14.97
2018-03-25T09:01:21.833Z,14.53
2018-03-25T09:02:21.824Z,13.99
2018-03-25T09:03:21.822Z,13.70
2018-03-25T09:04:21.830Z,13.47
2018-03-25T09:05:21.824Z,12.98
2018-03-25T09:06:21.824Z,12.62
2018-03-25T09:07:21.830Z,12.13
2018-03-25T09:08:21.812Z,11.81
2018-03-25T09:09:21.813Z,11.22
2018-03-25T09:10:21.811Z,10.84
2018-03-25T09:11:21.996Z,10.48
2018-03-25T09:12:21.788Z,10.22
2018-03-25T09:13:22.013Z,10.07
2018-03-25T09:14:21.798Z,9.86
2018-03-25T09:15:21.988Z,9.58
2018-03-25T09:16:21.786Z,9.44
2018-03-25T09:17:21.771Z,9.31
2018-03-25T09:18:21.983Z,9.29
2018-03-25T09:19:21.776Z,9.18
2018-03-25T09:20:21.763Z,9.21
2018-03-25T09:21:21.769Z,9.16
2018-03-25T09:22:21.752Z,9.11
2018-03-25T09:23:21.747Z,8.99
2018-03-25T09:24:21.754Z,9.00
2018-03-25T09:25:21.947Z,8.97
2018-03-25T09:26:21.794Z,8.87
2018-03-25T09:27:21.729Z,8.97
2018-03-25T09:28:21.731Z,8.88
2018-03-25T09:29:21.938Z,8.94
2018-03-25T09:30:21.717Z,8.87
2018-03-25T09:31:21.737Z,8.87
2018-03-25T09:32:21.709Z,8.84
2018-03-25T09:33:21.702Z,8.87
2018-03-25T09:34:21.711Z,8.85
2018-03-25T09:35:21.724Z,8.91
2018-03-25T09:36:21.708Z,8.94
2018-03-25T09:37:21.732Z,8.89
2018-03-25T09:38:21.694Z,8.87
2018-03-25T09:39:21.879Z,8.94
2018-03-25T09:40:21.675Z,8.94
2018-03-25T09:41:21.884Z,8.92
2018-03-25T09:42:21.667Z,8.91
2018-03-25T09:43:21.670Z,8.94
2018-03-25T09:44:21.669Z,9.00
2018-03-25T09:45:21.652Z,9.10
2018-03-25T09:46:21.667Z,9.14
2018-03-25T09:47:21.854Z,9.22
2018-03-25T09:48:21.637Z,9.28
2018-03-25T09:49:21.851Z,9.46
2018-03-25T09:50:21.845Z,9.48
2018-03-25T09:51:21.634Z,9.32
2018-03-25T09:52:21.629Z,9.32
2018-03-25T09:53:21.630Z,9.39
2018-03-25T09:54:21.817Z,9.69
2018-03-25T09:55:21.603Z,9.74
2018-03-25T09:56:21.621Z,9.80
2018-03-25T09:57:21.797Z,9.74
2018-03-25T09:58:21.803Z,9.59
2018-03-25T09:59:21.597Z,9.56
2018-03-25T10:00:21.591Z,9.46
2018-03-25T10:01:21.588Z,9.48
2018-03-25T10:02:21.795Z,9.46
2018-03-25T10:03:21.581Z,9.43
2018-03-25T10:04:21.779Z,9.41
2018-03-25T10:05:21.571Z,9.43
2018-03-25T10:06:21.555Z,9.48
2018-03-25T10:07:21.547Z,9.44
2018-03-25T10:08:21.570Z,9.56
2018-03-25T10:09:21.551Z,9.72
2018-03-25T10:10:21.546Z,10.25
2018-03-25T10:11:21.540Z,10.63
2018-03-25T10:12:21.524Z,10.75
2018-03-25T10:13:21.536Z,10.79
2018-03-25T10:14:21.729Z,10.97
2018-03-25T10:15:21.523Z,10.97
2018-03-25T10:16:21.520Z,10.94
2018-03-25T10:17:21.503Z,10.90
2018-03-25T10:18:21.521Z,10.92
2018-03-25T10:19:21.503Z,11.17
2018-03-25T10:20:21.487Z,11.14
2018-03-25T10:21:21.494Z,11.17
2018-03-25T10:22:21.506Z,11.11
2018-03-25T10:23:21.474Z,10.93
2018-03-25T10:24:21.485Z,10.63
2018-03-25T10:25:21.471Z,10.30
2018-03-25T10:26:21.463Z,10.17
2018-03-25T10:27:21.467Z,10.15
2018-03-25T10:28:21.469Z,10.12
2018-03-25T10:29:21.448Z,10.15
2018-03-25T10:30:21.454Z,10.28
2018-03-25T10:31:21.641Z,10.75
2018-03-25T10:32:21.444Z,11.04
2018-03-25T10:33:21.456Z,11.18
2018-03-25T10:34:21.640Z,11.48
2018-03-25T10:35:21.422Z,11.30
2018-03-25T10:36:21.431Z,11.17
2018-03-25T10:37:21.618Z,10.99
2018-03-25T10:38:21.421Z,10.92
2018-03-25T10:39:21.607Z,10.81
2018-03-25T10:40:21.433Z,10.69
2018-03-25T10:41:21.412Z,10.68
2018-03-25T10:42:21.600Z,10.53
2018-03-25T10:43:21.600Z,10.38
2018-03-25T10:44:21.384Z,10.35
2018-03-25T10:45:21.583Z,10.44
2018-03-25T10:46:21.580Z,10.44
2018-03-25T10:47:21.573Z,10.34
2018-03-25T10:48:21.377Z,10.46
2018-03-25T10:49:21.577Z,10.74
2018-03-25T10:50:21.562Z,10.96
2018-03-25T10:51:21.375Z,11.02
2018-03-25T10:52:21.560Z,11.48
2018-03-25T10:53:21.550Z,11.99
2018-03-25T10:54:21.351Z,12.13
2018-03-25T10:55:21.338Z,12.27
2018-03-25T10:56:21.344Z,12.32
2018-03-25T10:57:21.326Z,12.21
2018-03-25T10:58:21.527Z,11.94
2018-03-25T10:59:21.526Z,11.88
2018-03-25T11:00:21.318Z,11.77
2018-03-25T11:01:21.310Z,11.70
2018-03-25T11:02:21.306Z,11.86
2018-03-25T11:03:21.301Z,11.87
2018-03-25T11:04:21.502Z,11.90
2018-03-25T11:05:21.500Z,11.78
2018-03-25T11:06:21.511Z,11.77
2018-03-25T11:07:21.496Z,11.84
2018-03-25T11:08:21.282Z,12.10
2018-03-25T11:09:21.276Z,12.24
2018-03-25T11:10:21.271Z,12.02
2018-03-25T11:11:21.278Z,11.65
2018-03-25T11:12:21.468Z,11.27
2018-03-25T11:13:21.291Z,11.07
2018-03-25T11:14:21.258Z,10.90
2018-03-25T11:15:21.264Z,10.82
2018-03-25T11:16:21.248Z,10.75
2018-03-25T11:17:21.326Z,10.89
2018-03-25T11:18:21.285Z,10.93
2018-03-25T11:19:21.236Z,10.99
2018-03-25T11:20:21.451Z,10.96
2018-03-25T11:21:21.242Z,11.08
2018-03-25T11:22:21.223Z,11.08
2018-03-25T11:23:21.240Z,11.08
2018-03-25T11:24:21.218Z,11.17
2018-03-25T11:25:21.222Z,11.08
2018-03-25T11:26:21.207Z,11.00
2018-03-25T11:27:21.203Z,10.87
2018-03-25T11:28:21.213Z,10.93
2018-03-25T11:29:21.223Z,11.10
2018-03-25T11:30:21.200Z,11.07
2018-03-25T11:31:21.188Z,11.15
2018-03-25T11:32:21.396Z,10.96
2018-03-25T11:33:21.398Z,10.94
2018-03-25T11:34:21.203Z,10.99
2018-03-25T11:35:21.395Z,11.00
2018-03-25T11:36:21.384Z,10.79
2018-03-25T11:37:21.160Z,10.76
2018-03-25T11:38:21.364Z,10.54
2018-03-25T11:39:21.162Z,10.49
2018-03-25T11:40:21.156Z,10.46
2018-03-25T11:41:21.142Z,10.48
2018-03-25T11:42:21.343Z,10.46
2018-03-25T11:43:21.135Z,10.44
2018-03-25T11:44:21.145Z,10.49
2018-03-25T11:45:21.146Z,10.75
2018-03-25T11:46:21.328Z,10.82
2018-03-25T11:47:21.121Z,10.89
2018-03-25T11:48:21.116Z,10.87
2018-03-25T11:49:21.120Z,10.87
2018-03-25T11:50:21.106Z,10.89
2018-03-25T11:51:21.103Z,11.11
2018-03-25T11:52:21.096Z,11.30
2018-03-25T11:53:21.319Z,11.57
2018-03-25T11:54:21.092Z,11.80
2018-03-25T11:55:21.090Z,11.78
2018-03-25T11:56:21.081Z,11.69
2018-03-25T11:57:21.080Z,11.62
2018-03-25T11:58:21.074Z,11.65
2018-03-25T11:59:21.095Z,11.70
2018-03-25T12:00:21.081Z,11.77
2018-03-25T12:01:21.073Z,11.83
2018-03-25T12:02:21.056Z,11.99
2018-03-25T12:03:21.055Z,12.03
2018-03-25T12:04:21.256Z,11.88
2018-03-25T12:05:21.246Z,11.97
2018-03-25T12:06:21.046Z,11.84
2018-03-25T12:07:21.240Z,12.00
2018-03-25T12:08:21.036Z,11.84
2018-03-25T12:09:21.032Z,11.83
2018-03-25T12:10:21.027Z,11.81
2018-03-25T12:11:21.235Z,11.83
2018-03-25T12:12:21.015Z,11.80
2018-03-25T12:13:21.220Z,11.68
2018-03-25T12:14:21.019Z,11.68
2018-03-25T12:15:21.004Z,11.77
2018-03-25T12:16:21.241Z,11.81
2018-03-25T12:17:21.008Z,11.81
2018-03-25T12:18:20.996Z,11.70
2018-03-25T12:19:20.992Z,11.69
2018-03-25T12:20:20.986Z,11.66
2018-03-25T12:21:20.983Z,11.60
2018-03-25T12:22:20.975Z,11.55
2018-03-25T12:23:20.971Z,11.36
2018-03-25T12:24:20.979Z,11.40
2018-03-25T12:25:21.170Z,11.52
2018-03-25T12:26:20.974Z,11.55
2018-03-25T12:27:21.161Z,11.40
2018-03-25T12:28:20.951Z,11.41
2018-03-25T12:29:20.952Z,11.45
2018-03-25T12:30:21.149Z,11.44
2018-03-25T12:31:20.940Z,11.59
2018-03-25T12:32:20.947Z,11.69
2018-03-25T12:33:20.936Z,11.73
2018-03-25T12:34:20.954Z,11.68
2018-03-25T12:35:20.935Z,11.66
2018-03-25T12:36:20.939Z,11.78
2018-03-25T12:37:20.933Z,11.66
2018-03-25T12:38:21.138Z,11.65
2018-03-25T12:39:21.114Z,11.68
2018-03-25T12:40:20.910Z,11.81
2018-03-25T12:41:20.902Z,11.81
2018-03-25T12:42:20.910Z,11.83
2018-03-25T12:43:20.896Z,12.17
2018-03-25T12:44:20.905Z,12.35
2018-03-25T12:45:20.888Z,12.32
2018-03-25T12:46:20.901Z,12.18
2018-03-25T12:47:20.882Z,12.18
2018-03-25T12:48:20.876Z,12.10
2018-03-25T12:49:20.881Z,11.99
2018-03-25T12:50:20.926Z,11.99
2018-03-25T12:51:20.878Z,12.10
2018-03-25T12:52:20.876Z,11.97
2018-03-25T12:53:20.870Z,12.09
2018-03-25T12:54:20.852Z,12.25
2018-03-25T12:55:20.863Z,12.28
2018-03-25T12:56:21.049Z,12.39
2018-03-25T12:57:21.059Z,12.40
2018-03-25T12:58:21.060Z,12.28
2018-03-25T12:59:21.042Z,12.22
2018-03-25T13:00:20.842Z,12.27
2018-03-25T13:01:21.029Z,12.22
2018-03-25T13:02:21.028Z,12.06
2018-03-25T13:03:20.820Z,12.22
2018-03-25T13:04:20.817Z,12.42
2018-03-25T13:05:20.815Z,12.53
2018-03-25T13:06:20.825Z,12.62
2018-03-25T13:07:20.825Z,12.60